Time;durP1;ratioP1;P1;durP2;ratioP2;P2;SDS_P1;SDS_P2;PMS_P1;PMS_P2;Temp;Humidity;BMP_temperature;BMP_pressure;BME280_temperature;BME280_humidity;BME280_pressure;Samples;Min_cycle;Max_cycle;Signal;HPM_P1;HPM_P2
2022/03/24 00:00:04;;;;;;;35.60;25.70;;;10.50;50.80;;;;;;5055348;28;20245;-66
2022/03/24 00:02:35;;;;;;;32.58;23.92;;;10.50;50.90;;;;;;5054068;28;20322;-66
2022/03/24 00:05:08;;;;;;;31.48;23.77;;;10.50;51.00;;;;;;5055026;28;20229;-66
2022/03/24 00:07:39;;;;;;;35.15;26.38;;;10.50;51.10;;;;;;5041195;28;20249;-66
2022/03/24 00:10:14;;;;;;;31.50;23.95;;;10.40;51.00;;;;;;5054061;28;20306;-66
2022/03/24 00:12:47;;;;;;;38.45;27.00;;;10.50;51.10;;;;;;5054595;28;20217;-65
2022/03/24 00:15:20;;;;;;;36.33;24.98;;;10.40;51.20;;;;;;5049826;28;20227;-66
2022/03/24 00:17:51;;;;;;;35.00;23.95;;;10.40;51.30;;;;;;5052422;28;20217;-66
2022/03/24 00:20:25;;;;;;;32.15;23.23;;;10.30;51.20;;;;;;5049818;28;20992;-65
2022/03/24 00:22:57;;;;;;;34.67;22.38;;;10.30;51.30;;;;;;5051726;28;20220;-65
2022/03/24 00:25:29;;;;;;;29.55;22.10;;;10.20;51.40;;;;;;5053553;28;20264;-66
2022/03/24 00:28:01;;;;;;;31.33;23.92;;;10.20;51.50;;;;;;5053976;28;20217;-66
2022/03/24 00:30:38;;;;;;;32.45;23.42;;;10.20;51.80;;;;;;5053601;28;20240;-66
2022/03/24 00:33:09;;;;;;;32.92;24.38;;;10.10;51.70;;;;;;5054240;28;20217;-65
2022/03/24 00:35:41;;;;;;;32.58;22.88;;;10.10;51.80;;;;;;5054274;28;20690;-66
2022/03/24 00:38:11;;;;;;;30.15;22.35;;;10.00;51.80;;;;;;5054024;28;20221;-65
2022/03/24 00:40:45;;;;;;;31.77;23.55;;;10.00;51.90;;;;;;5051231;28;20248;-66
2022/03/24 00:43:18;;;;;;;29.92;23.77;;;9.90;52.90;;;;;;5052377;28;20530;-66
2022/03/24 00:45:51;;;;;;;34.13;23.80;;;9.90;53.00;;;;;;5053215;28;20220;-66
2022/03/24 00:48:19;;;;;;;25.30;21.15;;;9.80;53.10;;;;;;5050952;28;20233;-66
2022/03/24 00:50:47;;;;;;;31.20;24.23;;;9.90;53.10;;;;;;5053278;28;20252;-66
2022/03/24 00:53:14;;;;;;;32.17;24.95;;;9.90;53.10;;;;;;5053655;28;20212;-66
2022/03/24 00:55:44;;;;;;;30.27;23.35;;;9.80;53.20;;;;;;5053745;28;20691;-66
2022/03/24 00:58:13;;;;;;;33.42;24.65;;;9.80;53.40;;;;;;5054604;28;20230;-66
2022/03/24 01:00:42;;;;;;;28.35;21.85;;;9.80;53.50;;;;;;5053676;28;20270;-66
2022/03/24 01:03:10;;;;;;;28.42;23.08;;;9.70;53.50;;;;;;5053774;28;20319;-66
2022/03/24 01:05:38;;;;;;;32.67;24.85;;;9.70;53.70;;;;;;5053879;28;20687;-65
2022/03/24 01:08:08;;;;;;;27.23;20.98;;;9.60;53.80;;;;;;5053184;28;20235;-65
2022/03/24 01:10:37;;;;;;;29.27;22.48;;;9.60;54.00;;;;;;5053619;28;20229;-65
2022/03/24 01:13:07;;;;;;;33.08;24.55;;;9.50;53.90;;;;;;5054179;28;20282;-66
2022/03/24 01:15:35;;;;;;;29.88;23.17;;;9.50;53.80;;;;;;5053102;28;20257;-66
2022/03/24 01:18:04;;;;;;;29.75;22.60;;;9.40;54.10;;;;;;5053753;28;20220;-66
2022/03/24 01:20:33;;;;;;;27.73;21.77;;;9.40;54.20;;;;;;5053204;28;20229;-66
2022/03/24 01:23:02;;;;;;;30.58;21.98;;;9.40;54.20;;;;;;5053003;28;20229;-67
2022/03/24 01:25:29;;;;;;;31.58;24.33;;;9.30;54.30;;;;;;5053378;28;20228;-66
2022/03/24 01:27:57;;;;;;;36.05;25.15;;;9.30;54.30;;;;;;5053763;28;20228;-66
2022/03/24 01:30:26;;;;;;;31.58;23.13;;;9.30;54.50;;;;;;5053649;28;20232;-65
2022/03/24 01:32:54;;;;;;;32.03;25.02;;;9.20;54.60;;;;;;5052786;28;20288;-66
2022/03/24 01:35:23;;;;;;;32.08;23.38;;;9.10;54.70;;;;;;5053877;28;20540;-66
2022/03/24 01:37:50;;;;;;;28.35;22.15;;;9.20;54.80;;;;;;5052631;28;20286;-66
2022/03/24 01:40:18;;;;;;;33.15;23.38;;;9.10;54.90;;;;;;5047756;28;20236;-66
2022/03/24 01:42:47;;;;;;;31.90;22.95;;;9.10;55.00;;;;;;5053012;28;20221;-66
2022/03/24 01:45:14;;;;;;;30.13;23.38;;;9.10;55.10;;;;;;5053202;28;20224;-67
2022/03/24 01:47:43;;;;;;;31.38;24.60;;;9.10;55.10;;;;;;5052310;28;20233;-66
2022/03/24 01:50:12;;;;;;;31.98;22.20;;;9.10;55.20;;;;;;5061327;28;20299;-66
2022/03/24 01:52:41;;;;;;;30.73;24.40;;;9.00;55.30;;;;;;5047913;28;20764;-66
2022/03/24 01:55:09;;;;;;;30.55;24.30;;;8.90;55.40;;;;;;5052667;28;20229;-65
2022/03/24 01:57:37;;;;;;;31.50;23.48;;;8.90;55.50;;;;;;5053017;28;20225;-65
2022/03/24 02:00:07;;;;;;;30.20;23.52;;;8.90;55.60;;;;;;5052743;28;20217;-65
2022/03/24 02:02:37;;;;;;;33.78;23.88;;;8.90;55.70;;;;;;5052284;28;20299;-65
2022/03/24 02:05:07;;;;;;;37.08;23.88;;;8.80;55.70;;;;;;5040217;28;20220;-65
2022/03/24 02:07:35;;;;;;;32.90;24.67;;;8.80;55.90;;;;;;5052448;28;20225;-65
2022/03/24 02:10:03;;;;;;;34.90;24.95;;;8.80;55.90;;;;;;5053145;28;20641;-65
2022/03/24 02:12:30;;;;;;;37.20;27.42;;;8.80;56.50;;;;;;5052461;28;20228;-65
2022/03/24 02:15:03;;;;;;;30.42;23.00;;;8.80;56.00;;;;;;5052106;28;20224;-65
2022/03/24 02:17:31;;;;;;;31.45;24.05;;;8.80;56.10;;;;;;5052819;28;20321;-65
2022/03/24 02:20:01;;;;;;;30.98;23.45;;;8.80;56.20;;;;;;5051898;28;21073;-66
2022/03/24 02:22:32;;;;;;;28.65;22.83;;;8.80;56.20;;;;;;5052039;28;20228;-66
2022/03/24 02:25:00;;;;;;;34.53;26.75;;;8.80;56.20;;;;;;5052297;28;21278;-66
2022/03/24 02:27:28;;;;;;;29.83;23.27;;;8.80;56.40;;;;;;5048842;28;20275;-66
2022/03/24 02:29:57;;;;;;;36.03;25.38;;;8.80;56.40;;;;;;5042729;28;20232;-66
2022/03/24 02:32:25;;;;;;;32.75;24.05;;;8.70;56.40;;;;;;5050256;28;20248;-66
2022/03/24 02:34:55;;;;;;;33.85;23.73;;;8.70;56.40;;;;;;5052316;28;20282;-65
2022/03/24 02:37:26;;;;;;;36.42;25.30;;;8.70;56.50;;;;;;5052198;28;20679;-65
2022/03/24 02:39:58;;;;;;;30.65;24.65;;;8.60;56.50;;;;;;5047163;28;20235;-66
2022/03/24 02:42:29;;;;;;;34.70;23.17;;;8.50;56.50;;;;;;5039347;28;20312;-65
2022/03/24 02:45:02;;;;;;;32.70;24.13;;;8.50;56.80;;;;;;5051795;28;20695;-66
2022/03/24 02:47:32;;;;;;;33.30;23.17;;;8.50;56.90;;;;;;5052127;28;20229;-65
2022/03/24 02:50:03;;;;;;;26.60;22.75;;;8.40;57.10;;;;;;5051982;28;20240;-65
2022/03/24 02:52:35;;;;;;;31.08;23.55;;;8.30;57.20;;;;;;5051713;28;20702;-66
2022/03/24 02:55:08;;;;;;;29.00;21.80;;;8.30;57.40;;;;;;5051668;28;20216;-66
2022/03/24 02:57:38;;;;;;;35.22;23.70;;;8.20;57.30;;;;;;5051804;28;20333;-66
2022/03/24 03:00:10;;;;;;;31.10;23.38;;;8.20;57.50;;;;;;5051864;28;20217;-66
2022/03/24 03:02:39;;;;;;;31.25;25.00;;;8.10;57.70;;;;;;5051243;28;20235;-66
2022/03/24 03:05:07;;;;;;;34.50;26.67;;;8.00;58.00;;;;;;5041026;28;20990;-65
2022/03/24 03:07:37;;;;;;;31.58;23.90;;;8.00;58.30;;;;;;5056155;28;20719;-66
2022/03/24 03:10:09;;;;;;;29.48;21.65;;;7.90;58.50;;;;;;5055498;28;20220;-67
2022/03/24 03:12:40;;;;;;;32.67;25.40;;;7.80;58.80;;;;;;5056301;28;20224;-66
2022/03/24 03:15:11;;;;;;;32.85;23.95;;;7.80;58.90;;;;;;5055884;28;20225;-66
2022/03/24 03:17:41;;;;;;;31.92;25.02;;;7.70;59.10;;;;;;5056094;28;20244;-66
2022/03/24 03:20:13;;;;;;;32.78;23.80;;;7.70;59.30;;;;;;5055318;28;20231;-66
2022/03/24 03:22:41;;;;;;;33.20;24.63;;;7.70;59.40;;;;;;5055723;28;20237;-66
2022/03/24 03:25:10;;;;;;;30.65;24.25;;;7.70;59.70;;;;;;5055644;28;20225;-66
2022/03/24 03:27:37;;;;;;;40.17;26.73;;;7.70;59.90;;;;;;5052293;28;20225;-66
2022/03/24 03:30:09;;;;;;;34.67;25.70;;;7.60;60.00;;;;;;5036123;28;20218;-67
2022/03/24 03:32:35;;;;;;;35.30;24.45;;;7.60;60.50;;;;;;5056028;28;20238;-66
2022/03/24 03:35:02;;;;;;;38.30;25.88;;;7.60;60.60;;;;;;5055412;28;20239;-67
2022/03/24 03:37:29;;;;;;;37.05;27.02;;;7.60;60.70;;;;;;5055940;28;20690;-66
2022/03/24 03:39:56;;;;;;;32.88;24.98;;;7.60;61.00;;;;;;5050076;28;20706;-67
2022/03/24 03:42:24;;;;;;;35.28;25.23;;;7.60;61.20;;;;;;5044613;28;20229;-66
2022/03/24 03:44:51;;;;;;;36.15;26.55;;;7.60;61.50;;;;;;5055279;28;20222;-65
2022/03/24 03:47:18;;;;;;;33.85;26.73;;;7.50;61.60;;;;;;5055600;28;20224;-65
2022/03/24 03:49:45;;;;;;;35.92;27.30;;;7.50;62.00;;;;;;5065154;28;20231;-65
2022/03/24 03:52:12;;;;;;;34.05;26.17;;;7.50;62.30;;;;;;5054860;28;20221;-66
2022/03/24 03:54:39;;;;;;;33.63;26.23;;;7.50;62.10;;;;;;5055084;28;20237;-66
2022/03/24 03:57:06;;;;;;;37.72;27.67;;;7.50;62.50;;;;;;5055400;28;20225;-66
2022/03/24 03:59:34;;;;;;;38.47;28.65;;;7.50;62.60;;;;;;5055411;28;20221;-65
2022/03/24 04:02:01;;;;;;;37.78;28.15;;;7.40;62.70;;;;;;5054961;28;20240;-66
2022/03/24 04:04:27;;;;;;;37.15;27.15;;;7.40;63.30;;;;;;5055370;28;20299;-66
2022/03/24 04:06:54;;;;;;;38.72;27.48;;;7.40;63.60;;;;;;5054955;28;20235;-66
2022/03/24 04:09:21;;;;;;;37.17;30.27;;;7.30;63.40;;;;;;5055171;28;20229;-66
2022/03/24 04:11:48;;;;;;;36.40;27.65;;;7.20;63.80;;;;;;5054827;28;20236;-66
2022/03/24 04:14:15;;;;;;;39.97;27.73;;;7.20;64.00;;;;;;5054657;28;20307;-66
2022/03/24 04:16:43;;;;;;;33.90;27.02;;;7.20;64.30;;;;;;5054891;28;20694;-66
2022/03/24 04:19:10;;;;;;;35.95;26.77;;;7.10;64.60;;;;;;5040996;28;20241;-65
2022/03/24 04:21:38;;;;;;;36.47;29.38;;;7.10;64.80;;;;;;5054798;28;20229;-65
2022/03/24 04:24:07;;;;;;;39.80;28.23;;;7.10;65.00;;;;;;5042276;28;20253;-66
2022/03/24 04:26:34;;;;;;;37.97;28.00;;;7.00;65.20;;;;;;5055114;28;20240;-66
2022/03/24 04:29:01;;;;;;;38.30;30.45;;;7.00;65.60;;;;;;5045215;28;20232;-65
2022/03/24 04:31:28;;;;;;;37.80;27.05;;;7.00;65.80;;;;;;5054025;28;20229;-65
2022/03/24 04:33:56;;;;;;;37.10;27.25;;;7.00;66.10;;;;;;5053090;28;20311;-65
2022/03/24 04:36:23;;;;;;;36.00;26.75;;;7.00;66.60;;;;;;5053392;28;20221;-65
2022/03/24 04:38:50;;;;;;;35.67;27.60;;;7.00;66.20;;;;;;5053850;28;20217;-64
2022/03/24 04:41:17;;;;;;;39.13;29.30;;;7.00;66.20;;;;;;5052560;28;20235;-64
2022/03/24 04:43:43;;;;;;;35.08;27.08;;;7.00;66.40;;;;;;5053605;28;20694;-65
2022/03/24 04:46:10;;;;;;;38.10;28.67;;;7.00;66.50;;;;;;5053373;28;20224;-65
2022/03/24 04:48:37;;;;;;;44.58;28.85;;;7.00;66.50;;;;;;5052553;28;20283;-65
2022/03/24 04:51:07;;;;;;;43.08;31.17;;;7.00;66.40;;;;;;5052150;28;20233;-65
2022/03/24 04:53:34;;;;;;;43.92;27.65;;;7.00;66.70;;;;;;5052977;28;20229;-65
2022/03/24 04:56:01;;;;;;;42.15;29.90;;;7.10;66.90;;;;;;5052339;28;20256;-65
2022/03/24 04:58:28;;;;;;;37.22;28.80;;;7.00;67.00;;;;;;5052696;28;20235;-65
2022/03/24 05:00:55;;;;;;;40.97;29.42;;;7.10;67.10;;;;;;5052334;28;20243;-65
2022/03/24 05:03:22;;;;;;;39.38;28.27;;;7.10;67.20;;;;;;5054379;28;20237;-65
2022/03/24 05:05:49;;;;;;;37.58;28.90;;;7.10;67.20;;;;;;5054208;28;20228;-65
2022/03/24 05:08:18;;;;;;;36.97;26.98;;;7.10;67.60;;;;;;5053835;28;20224;-65
2022/03/24 05:10:44;;;;;;;42.95;32.75;;;7.10;67.80;;;;;;5053967;28;20224;-65
2022/03/24 05:13:11;;;;;;;46.35;32.97;;;7.00;68.20;;;;;;5053847;28;20240;-65
2022/03/24 05:15:38;;;;;;;40.88;30.63;;;6.90;68.50;;;;;;5054388;28;20235;-65
2022/03/24 05:18:05;;;;;;;36.55;30.73;;;7.00;68.80;;;;;;5053442;28;20225;-64
2022/03/24 05:20:33;;;;;;;42.53;29.58;;;6.90;68.70;;;;;;5053964;28;20694;-65
2022/03/24 05:23:01;;;;;;;41.20;31.52;;;6.90;69.00;;;;;;5045736;28;20217;-66
2022/03/24 05:25:29;;;;;;;38.47;30.13;;;6.90;69.40;;;;;;5051906;28;20675;-65
2022/03/24 05:27:56;;;;;;;43.35;30.95;;;6.90;69.40;;;;;;5052833;28;20221;-65
2022/03/24 05:30:23;;;;;;;45.75;31.85;;;6.90;69.90;;;;;;5053707;28;20225;-65
2022/03/24 05:32:50;;;;;;;45.38;32.33;;;6.90;70.10;;;;;;5053839;28;20233;-64
2022/03/24 05:35:17;;;;;;;39.72;29.92;;;7.00;70.10;;;;;;5053413;28;20225;-65
2022/03/24 05:37:44;;;;;;;40.53;30.65;;;6.90;70.20;;;;;;5053532;28;20240;-65
2022/03/24 05:40:15;;;;;;;45.30;33.08;;;6.90;70.50;;;;;;5053041;28;20236;-65
2022/03/24 05:42:43;;;;;;;43.30;29.65;;;6.90;70.70;;;;;;5053758;28;20224;-65
2022/03/24 05:45:10;;;;;;;40.88;31.20;;;6.80;70.90;;;;;;5050929;28;20229;-65
2022/03/24 05:47:37;;;;;;;43.88;31.38;;;6.90;71.20;;;;;;5053205;28;20225;-65
2022/03/24 05:50:04;;;;;;;41.63;30.67;;;6.80;71.30;;;;;;5053111;28;20231;-66
2022/03/24 05:52:31;;;;;;;41.80;31.55;;;6.90;71.60;;;;;;5053147;28;20225;-65
2022/03/24 05:54:58;;;;;;;39.92;30.23;;;6.80;72.00;;;;;;5053115;28;20298;-65
2022/03/24 05:57:25;;;;;;;40.50;32.00;;;6.80;72.30;;;;;;5053133;28;20229;-64
2022/03/24 05:59:53;;;;;;;47.67;33.35;;;6.80;72.40;;;;;;5050542;28;20237;-64
2022/03/24 06:02:21;;;;;;;44.33;32.45;;;6.80;72.60;;;;;;5049743;28;20715;-66
2022/03/24 06:04:48;;;;;;;41.65;31.00;;;6.90;72.60;;;;;;5052636;28;20680;-66
2022/03/24 06:07:15;;;;;;;45.05;33.22;;;6.90;72.60;;;;;;5051914;28;20225;-66
2022/03/24 06:09:42;;;;;;;47.10;33.55;;;6.90;72.90;;;;;;5052386;28;20252;-66
2022/03/24 06:12:10;;;;;;;44.72;32.20;;;7.00;73.00;;;;;;5052147;28;20233;-65
2022/03/24 06:14:38;;;;;;;41.15;32.15;;;7.00;73.10;;;;;;5052856;28;20675;-65
2022/03/24 06:17:06;;;;;;;47.75;33.55;;;7.00;73.10;;;;;;5052352;28;20702;-64
2022/03/24 06:19:35;;;;;;;42.75;31.10;;;7.10;73.10;;;;;;5053349;28;20240;-64
2022/03/24 06:22:02;;;;;;;47.35;33.08;;;7.10;73.10;;;;;;5052128;28;20240;-64
2022/03/24 06:24:29;;;;;;;41.75;30.83;;;7.20;73.20;;;;;;5045960;28;20231;-65
2022/03/24 06:26:59;;;;;;;46.30;31.90;;;7.20;73.20;;;;;;5052893;28;20240;-65
2022/03/24 06:29:26;;;;;;;47.20;34.15;;;7.30;73.40;;;;;;5052445;28;21004;-65
2022/03/24 06:31:53;;;;;;;40.40;32.80;;;7.30;73.30;;;;;;5052478;28;20247;-66
2022/03/24 06:34:21;;;;;;;48.13;36.30;;;7.40;73.20;;;;;;5052450;28;20239;-66
2022/03/24 06:36:49;;;;;;;44.88;33.55;;;7.40;73.00;;;;;;5052552;28;20224;-65
2022/03/24 06:39:16;;;;;;;43.15;32.50;;;7.50;73.10;;;;;;5051356;28;20227;-65
2022/03/24 06:41:44;;;;;;;43.40;33.00;;;7.50;73.20;;;;;;5052673;28;20235;-65
2022/03/24 06:44:11;;;;;;;46.05;34.95;;;7.60;73.30;;;;;;5051905;28;20303;-65
2022/03/24 06:46:39;;;;;;;49.35;35.58;;;7.60;73.50;;;;;;5052616;28;20307;-65
2022/03/24 06:49:07;;;;;;;42.63;33.80;;;7.70;73.50;;;;;;5051351;28;20232;-65
2022/03/24 06:51:38;;;;;;;43.67;33.45;;;7.70;73.40;;;;;;5052097;28;20231;-66
2022/03/24 06:54:05;;;;;;;47.72;34.35;;;7.80;73.50;;;;;;5051979;28;20228;-65
2022/03/24 06:56:32;;;;;;;47.42;34.05;;;7.80;73.50;;;;;;5052557;28;20225;-64
2022/03/24 06:58:59;;;;;;;45.70;33.35;;;7.90;73.30;;;;;;5052476;28;20228;-65
2022/03/24 07:01:26;;;;;;;48.95;32.50;;;8.00;73.10;;;;;;5052075;28;20666;-64
2022/03/24 07:03:53;;;;;;;44.65;33.90;;;8.00;72.80;;;;;;5052344;28;20228;-65
2022/03/24 07:06:20;;;;;;;39.00;30.35;;;8.10;72.60;;;;;;5052009;28;20290;-65
2022/03/24 07:08:49;;;;;;;39.45;31.48;;;8.20;72.50;;;;;;5052256;28;20567;-65
2022/03/24 07:11:16;;;;;;;45.25;33.28;;;8.20;72.20;;;;;;5051968;28;20228;-65
2022/03/24 07:13:43;;;;;;;48.08;34.40;;;8.30;72.40;;;;;;5052226;28;20228;-64
2022/03/24 07:16:10;;;;;;;41.10;29.98;;;8.30;72.10;;;;;;5052146;28;20566;-65
2022/03/24 07:18:36;;;;;;;46.78;32.90;;;8.40;72.10;;;;;;5052402;28;20364;-65
2022/03/24 07:21:03;;;;;;;43.63;32.47;;;8.50;72.00;;;;;;5051995;28;20220;-66
2022/03/24 07:23:32;;;;;;;44.03;32.65;;;8.60;72.00;;;;;;5051668;28;20698;-64
2022/03/24 07:26:00;;;;;;;40.20;30.13;;;8.70;71.60;;;;;;5052134;28;20303;-65
2022/03/24 07:28:27;;;;;;;39.72;32.50;;;8.80;71.40;;;;;;5051774;28;20228;-65
2022/03/24 07:30:54;;;;;;;41.80;30.85;;;8.80;71.10;;;;;;5051939;28;20236;-64
2022/03/24 07:33:22;;;;;;;48.28;34.92;;;8.90;70.80;;;;;;5051812;28;20228;-65
2022/03/24 07:35:50;;;;;;;46.72;33.70;;;9.00;70.90;;;;;;5052263;28;20217;-66
2022/03/24 07:38:17;;;;;;;45.83;34.63;;;9.00;70.70;;;;;;5051686;28;20221;-65
2022/03/24 07:40:44;;;;;;;45.60;32.95;;;9.10;70.40;;;;;;5052204;28;20238;-65
2022/03/24 07:43:12;;;;;;;40.70;30.90;;;9.20;70.30;;;;;;5051434;28;20221;-64
2022/03/24 07:45:39;;;;;;;43.60;32.90;;;9.20;70.10;;;;;;5052339;28;20233;-64
2022/03/24 07:48:17;;;;;;;42.72;31.45;;;9.30;69.80;;;;;;5052206;28;20749;-64
2022/03/24 07:50:46;;;;;;;43.90;34.35;;;9.40;69.80;;;;;;5053519;28;20228;-66
2022/03/24 07:53:35;;;;;;;43.97;32.78;;;9.50;69.60;;;;;;5055445;28;20224;-65
2022/03/24 07:56:03;;;;;;;39.17;30.55;;;9.50;69.40;;;;;;5055435;28;20274;-65
2022/03/24 07:58:36;;;;;;;42.78;32.22;;;9.70;69.30;;;;;;5055883;28;20256;-65
2022/03/24 08:01:04;;;;;;;42.63;32.75;;;9.70;69.10;;;;;;5055312;28;20229;-65
2022/03/24 08:03:31;;;;;;;40.60;31.67;;;9.80;69.10;;;;;;5055743;28;20249;-66
2022/03/24 08:05:59;;;;;;;41.10;32.55;;;9.90;68.90;;;;;;5055302;28;20236;-66
2022/03/24 08:08:27;;;;;;;44.67;32.30;;;9.90;68.60;;;;;;5055499;28;20319;-65
2022/03/24 08:10:55;;;;;;;47.67;33.42;;;10.10;67.10;;;;;;5055123;28;20247;-66
2022/03/24 08:13:24;;;;;;;45.05;33.25;;;10.10;67.10;;;;;;5055681;28;20229;-66
2022/03/24 08:15:54;;;;;;;39.92;31.48;;;10.20;67.20;;;;;;5054985;28;20229;-65
2022/03/24 08:18:21;;;;;;;36.90;29.40;;;10.30;66.90;;;;;;5055503;28;20252;-65
2022/03/24 08:20:49;;;;;;;39.67;29.85;;;10.30;66.20;;;;;;5055230;28;20231;-66
2022/03/24 08:23:16;;;;;;;37.08;29.90;;;10.40;66.20;;;;;;5054707;28;20233;-65
2022/03/24 08:25:44;;;;;;;38.50;28.15;;;10.50;66.10;;;;;;5055102;28;20220;-65
2022/03/24 08:28:12;;;;;;;34.05;28.38;;;10.60;66.20;;;;;;5055088;28;20224;-65
2022/03/24 08:30:39;;;;;;;39.58;31.15;;;10.70;66.40;;;;;;5054930;28;20233;-65
2022/03/24 08:33:09;;;;;;;42.95;31.67;;;10.70;66.20;;;;;;5054812;28;20749;-65
2022/03/24 08:35:36;;;;;;;36.38;28.95;;;10.80;65.50;;;;;;5054823;28;20233;-66
2022/03/24 08:38:03;;;;;;;41.90;30.38;;;10.90;65.40;;;;;;5054409;28;20251;-64
2022/03/24 08:40:29;;;;;;;39.63;31.40;;;11.00;64.90;;;;;;5055090;28;20291;-65
2022/03/24 08:42:56;;;;;;;43.13;31.35;;;11.10;64.50;;;;;;5054615;28;20235;-64
2022/03/24 08:45:24;;;;;;;40.33;30.92;;;11.10;64.20;;;;;;5054858;28;20232;-65
2022/03/24 08:47:51;;;;;;;39.75;29.65;;;11.20;64.00;;;;;;5055022;28;20250;-65
2022/03/24 08:50:19;;;;;;;33.30;28.55;;;11.30;64.10;;;;;;5054457;28;21105;-66
2022/03/24 08:52:46;;;;;;;42.22;29.83;;;11.40;64.00;;;;;;5054700;28;20310;-66
2022/03/24 08:55:14;;;;;;;39.45;30.55;;;11.40;63.70;;;;;;5054272;28;20236;-65
2022/03/24 08:57:42;;;;;;;36.22;28.65;;;11.50;63.40;;;;;;5054732;28;20696;-64
2022/03/24 09:00:13;;;;;;;42.08;29.75;;;11.60;63.00;;;;;;5054021;28;20232;-65
2022/03/24 09:02:41;;;;;;;36.50;29.52;;;11.60;62.30;;;;;;5053738;28;20225;-65
2022/03/24 09:05:08;;;;;;;35.22;30.60;;;11.70;63.10;;;;;;5054167;28;20224;-65
2022/03/24 09:07:37;;;;;;;36.70;28.13;;;11.80;62.30;;;;;;5054378;28;20231;-66
2022/03/24 09:10:06;;;;;;;38.28;29.25;;;11.80;62.20;;;;;;5053848;28;20236;-65
2022/03/24 09:12:34;;;;;;;33.92;26.15;;;11.80;62.00;;;;;;5054491;28;20638;-65
2022/03/24 09:15:05;;;;;;;37.42;27.88;;;11.90;61.80;;;;;;5053867;28;20240;-66
2022/03/24 09:17:32;;;;;;;40.50;30.17;;;12.00;61.30;;;;;;5054588;28;20248;-65
2022/03/24 09:19:59;;;;;;;34.60;29.92;;;12.10;59.90;;;;;;5053818;28;20216;-65
2022/03/24 09:22:26;;;;;;;33.72;27.10;;;12.10;59.20;;;;;;5053911;28;20311;-66
2022/03/24 09:24:54;;;;;;;31.00;24.60;;;12.20;59.20;;;;;;5054177;28;20225;-64
2022/03/24 09:27:21;;;;;;;36.05;27.48;;;12.30;59.20;;;;;;5053698;28;20953;-65
2022/03/24 09:29:49;;;;;;;31.98;27.33;;;12.30;58.80;;;;;;5054024;28;20221;-64
2022/03/24 09:32:17;;;;;;;28.25;23.20;;;12.40;58.20;;;;;;5053706;28;20231;-65
2022/03/24 09:34:44;;;;;;;32.00;25.15;;;12.50;57.90;;;;;;5053871;28;20679;-66
2022/03/24 09:37:13;;;;;;;27.80;22.70;;;12.50;57.90;;;;;;5053453;28;20221;-66
2022/03/24 09:39:40;;;;;;;30.60;25.20;;;12.60;57.70;;;;;;5054117;28;20228;-65
2022/03/24 09:42:08;;;;;;;28.55;23.88;;;12.70;57.90;;;;;;5053339;28;20573;-65
2022/03/24 09:44:36;;;;;;;33.92;25.25;;;12.80;57.30;;;;;;5053902;28;20303;-64
2022/03/24 09:47:03;;;;;;;28.63;23.73;;;12.90;57.30;;;;;;5053523;28;20536;-64
2022/03/24 09:49:31;;;;;;;30.70;24.00;;;13.00;57.00;;;;;;5053575;28;20259;-65
2022/03/24 09:52:01;;;;;;;26.92;22.42;;;13.00;56.60;;;;;;5053356;28;20308;-65
2022/03/24 09:54:30;;;;;;;31.63;23.67;;;13.10;56.50;;;;;;5053789;28;20224;-65
2022/03/24 09:56:56;;;;;;;27.00;21.92;;;13.20;56.20;;;;;;5053535;28;20228;-65
2022/03/24 09:59:25;;;;;;;28.70;22.02;;;13.20;55.70;;;;;;5053043;28;20220;-64
2022/03/24 10:01:51;;;;;;;26.42;22.98;;;13.30;55.20;;;;;;5053586;28;20232;-65
2022/03/24 10:04:18;;;;;;;26.88;22.35;;;13.40;54.60;;;;;;5052972;28;20225;-65
2022/03/24 10:06:59;;;;;;;37.75;25.70;;;13.50;54.10;;;;;;5053116;28;20283;-65
2022/03/24 10:09:39;;;;;;;34.30;23.13;;;13.50;53.60;;;;;;5052957;28;21039;-65
2022/03/24 10:12:07;;;;;;;29.50;22.80;;;13.50;52.30;;;;;;5052920;28;20230;-65
2022/03/24 10:14:36;;;;;;;27.63;21.27;;;13.60;51.70;;;;;;5051885;28;20313;-66
2022/03/24 10:17:08;;;;;;;31.02;25.92;;;13.70;51.50;;;;;;5052596;28;20251;-65
2022/03/24 10:19:35;;;;;;;27.92;22.42;;;13.80;51.50;;;;;;5053196;28;20262;-65
2022/03/24 10:22:09;;;;;;;22.80;19.85;;;13.80;51.40;;;;;;5052800;28;20228;-65
2022/03/24 10:24:41;;;;;;;28.50;21.95;;;13.90;51.20;;;;;;5052955;28;20286;-66
2022/03/24 10:27:08;;;;;;;26.90;20.40;;;14.00;50.60;;;;;;5052973;28;20221;-66
2022/03/24 10:29:37;;;;;;;25.08;19.65;;;14.00;50.50;;;;;;5052560;28;20282;-66
2022/03/24 10:32:06;;;;;;;30.40;20.88;;;14.10;50.10;;;;;;5052788;28;20248;-65
2022/03/24 10:34:35;;;;;;;25.65;20.00;;;14.10;49.80;;;;;;5052609;28;20225;-64
2022/03/24 10:37:04;;;;;;;25.50;18.50;;;14.20;49.90;;;;;;5052982;28;20248;-65
2022/03/24 10:39:31;;;;;;;41.92;21.50;;;14.20;50.10;;;;;;5052318;28;20234;-65
2022/03/24 10:42:12;;;;;;;26.30;21.48;;;14.20;50.30;;;;;;5052828;28;20224;-66
2022/03/24 10:45:11;;;;;;;26.67;23.08;;;14.30;49.80;;;;;;5052479;28;20643;-65
2022/03/24 10:47:49;;;;;;;28.77;22.27;;;14.30;49.70;;;;;;5052453;28;20590;-65
2022/03/24 10:50:39;;;;;;;27.88;22.40;;;14.30;49.30;;;;;;5052193;28;20471;-64
2022/03/24 10:53:08;;;;;;;25.98;20.92;;;14.40;49.20;;;;;;5052659;28;20223;-64
2022/03/24 10:55:51;;;;;;;26.83;21.00;;;14.40;48.50;;;;;;5052280;28;20232;-65
2022/03/24 10:58:23;;;;;;;32.35;22.88;;;14.50;48.80;;;;;;5052362;28;20463;-65
2022/03/24 11:00:53;;;;;;;31.00;19.70;;;14.60;48.70;;;;;;5052542;28;20282;-64
2022/03/24 11:03:21;;;;;;;30.03;19.80;;;14.60;48.70;;;;;;5052362;28;20479;-64
2022/03/24 11:05:47;;;;;;;26.83;20.07;;;14.70;48.50;;;;;;5052775;28;20463;-65
2022/03/24 11:08:17;;;;;;;24.90;18.33;;;14.80;48.10;;;;;;5052508;28;20813;-65
2022/03/24 11:10:46;;;;;;;19.67;16.43;;;14.80;47.50;;;;;;5052029;28;21257;-65
2022/03/24 11:13:22;;;;;;;23.67;16.98;;;14.90;47.40;;;;;;5052490;28;20861;-65
2022/03/24 11:15:52;;;;;;;23.15;16.02;;;14.90;47.00;;;;;;5052387;28;20216;-65
2022/03/24 11:18:22;;;;;;;23.13;15.20;;;14.90;46.90;;;;;;5052508;28;20224;-65
2022/03/24 11:20:50;;;;;;;18.33;13.80;;;15.00;46.30;;;;;;5051786;28;20798;-65
2022/03/24 11:23:34;;;;;;;18.10;14.33;;;15.00;46.10;;;;;;5052278;28;20521;-66
2022/03/24 11:26:04;;;;;;;20.50;14.60;;;15.10;46.20;;;;;;5054351;28;20459;-65
2022/03/24 11:28:34;;;;;;;20.60;14.87;;;15.10;45.90;;;;;;5056063;28;20459;-66
2022/03/24 11:31:09;;;;;;;19.27;15.73;;;15.20;46.10;;;;;;5056246;28;20528;-65
2022/03/24 11:33:41;;;;;;;23.40;15.90;;;15.20;46.00;;;;;;5055921;28;20451;-65
2022/03/24 11:36:09;;;;;;;19.45;15.13;;;15.20;45.80;;;;;;5056191;28;20471;-65
2022/03/24 11:38:37;;;;;;;22.57;17.27;;;15.20;45.80;;;;;;5055737;28;20220;-65
2022/03/24 11:41:07;;;;;;;23.67;16.03;;;15.30;45.10;;;;;;5056212;28;20972;-65
2022/03/24 11:43:36;;;;;;;23.77;15.03;;;15.30;43.50;;;;;;5055639;28;20941;-65
2022/03/24 11:46:10;;;;;;;24.10;15.30;;;15.30;42.50;;;;;;5056102;28;20475;-65
2022/03/24 11:48:39;;;;;;;17.17;14.10;;;15.30;42.70;;;;;;5055927;28;20458;-65
2022/03/24 11:51:16;;;;;;;18.43;14.20;;;15.40;43.00;;;;;;5055886;28;20463;-65
2022/03/24 11:53:46;;;;;;;14.70;12.90;;;15.40;43.00;;;;;;5055632;28;20463;-65
2022/03/24 11:56:19;;;;;;;13.83;12.37;;;15.50;43.00;;;;;;5055836;28;20470;-65
2022/03/24 11:59:23;;;;;;;15.90;12.97;;;15.50;42.60;;;;;;5055665;28;20463;-65
2022/03/24 12:02:17;;;;;;;15.60;12.40;;;15.50;41.80;;;;;;5051222;28;20471;-65
2022/03/24 12:04:46;;;;;;;22.10;14.80;;;15.50;40.10;;;;;;5055279;28;20796;-65
2022/03/24 12:07:16;;;;;;;16.47;13.13;;;15.50;39.50;;;;;;5055521;28;20459;-64
2022/03/24 12:09:56;;;;;;;20.00;13.70;;;15.50;39.90;;;;;;5055224;28;20499;-64
2022/03/24 12:12:23;;;;;;;16.30;12.63;;;15.60;39.20;;;;;;5055552;28;20467;-65
2022/03/24 12:14:53;;;;;;;14.40;12.00;;;15.60;39.20;;;;;;5055149;28;20605;-65
2022/03/24 12:17:25;;;;;;;17.80;13.47;;;15.70;39.10;;;;;;5055313;28;20471;-65
2022/03/24 12:19:53;;;;;;;19.33;13.87;;;15.70;39.10;;;;;;5055481;28;20463;-65
2022/03/24 12:22:38;;;;;;;15.70;13.17;;;15.70;39.60;;;;;;5054727;28;20475;-65
2022/03/24 12:25:29;;;;;;;17.33;11.63;;;15.80;40.20;;;;;;5055636;28;20454;-64
2022/03/24 12:28:05;;;;;;;13.77;12.27;;;15.80;40.70;;;;;;5035306;28;20796;-65
2022/03/24 12:30:54;;;;;;;15.43;12.70;;;15.90;40.40;;;;;;5035328;28;20480;-65
2022/03/24 12:33:37;;;;;;;21.30;13.80;;;15.90;40.20;;;;;;5034992;28;21244;-65
2022/03/24 12:36:05;;;;;;;17.10;13.67;;;16.00;40.10;;;;;;5034711;28;20464;-65
2022/03/24 12:38:47;;;;;;;20.10;13.30;;;16.00;40.40;;;;;;5033946;28;20498;-66
2022/03/24 12:41:25;;;;;;;16.20;12.90;;;16.00;40.80;;;;;;5034671;28;20478;-65
2022/03/24 12:43:59;;;;;;;14.37;11.90;;;16.10;40.90;;;;;;5051615;28;20964;-65